Time;durP1;ratioP1;P1;durP2;ratioP2;P2;SDS_P1;SDS_P2;PMS_P1;PMS_P2;Temp;Humidity;BMP_temperature;BMP_pressure;BME280_temperature;BME280_humidity;BME280_pressure;Samples;Min_cycle;Max_cycle;Signal;HPM_P1;HPM_P2
2023/10/29 00:01:45;;;;;;;1.35;0.80;;;16.10;75.90;;;;;;5007390;28;20077;-50
2023/10/29 00:04:11;;;;;;;0.90;0.40;;;16.10;75.80;;;;;;5002914;28;20068;-53
2023/10/29 00:06:41;;;;;;;0.73;0.50;;;16.20;75.80;;;;;;5004476;28;20042;-52
2023/10/29 00:09:07;;;;;;;0.85;0.40;;;16.20;75.80;;;;;;5008531;28;20723;-56
2023/10/29 00:11:34;;;;;;;1.38;0.60;;;16.20;75.70;;;;;;5007793;28;20135;-54
2023/10/29 00:14:01;;;;;;;1.48;0.50;;;16.30;75.70;;;;;;5008754;28;20050;-51
2023/10/29 00:16:28;;;;;;;0.73;0.60;;;16.20;75.60;;;;;;5011215;28;20479;-53
2023/10/29 00:18:55;;;;;;;0.50;0.50;;;16.30;75.40;;;;;;5010255;28;20587;-53
2023/10/29 00:21:22;;;;;;;2.40;0.73;;;16.30;75.40;;;;;;5008685;28;20096;-54
2023/10/29 00:23:48;;;;;;;2.67;0.45;;;16.40;75.20;;;;;;5008323;28;20152;-50
2023/10/29 00:26:15;;;;;;;0.50;0.50;;;16.40;75.10;;;;;;5008600;28;20045;-53
2023/10/29 00:28:48;;;;;;;1.05;0.60;;;16.40;75.00;;;;;;4992775;28;20041;-52
2023/10/29 00:31:14;;;;;;;0.43;0.40;;;16.40;74.90;;;;;;5010848;28;20041;-51
2023/10/29 00:33:46;;;;;;;0.93;0.57;;;16.50;74.70;;;;;;5007402;28;20049;-54
2023/10/29 00:36:14;;;;;;;0.57;0.52;;;16.50;74.70;;;;;;5009420;28;20677;-53
2023/10/29 00:38:41;;;;;;;0.75;0.60;;;16.50;74.50;;;;;;5010181;28;20416;-53
2023/10/29 00:41:10;;;;;;;1.50;0.50;;;16.60;74.40;;;;;;5005346;28;20060;-54
2023/10/29 00:43:40;;;;;;;2.60;0.75;;;16.60;74.30;;;;;;5007480;28;20127;-54
2023/10/29 00:46:10;;;;;;;0.60;0.50;;;16.70;74.10;;;;;;4991369;28;20115;-53
2023/10/29 00:48:37;;;;;;;2.47;0.70;;;16.70;74.00;;;;;;4991130;28;20496;-54
2023/10/29 00:51:04;;;;;;;0.55;0.55;;;16.70;73.80;;;;;;5004984;28;20042;-53
2023/10/29 00:53:34;;;;;;;2.45;0.82;;;16.70;73.80;;;;;;5010752;28;20454;-50
2023/10/29 00:56:02;;;;;;;1.02;0.40;;;16.70;73.60;;;;;;4990906;28;20101;-52
2023/10/29 00:58:29;;;;;;;1.48;0.40;;;16.70;73.40;;;;;;4991993;28;20065;-56
2023/10/29 01:00:56;;;;;;;2.42;0.68;;;16.70;73.30;;;;;;5010381;28;20038;-54
2023/10/29 01:03:22;;;;;;;1.83;0.47;;;16.80;73.30;;;;;;5008388;28;20504;-52
2023/10/29 01:05:52;;;;;;;0.52;0.40;;;16.80;73.20;;;;;;5006962;28;20081;-51
2023/10/29 01:08:20;;;;;;;1.30;0.50;;;16.80;73.10;;;;;;5008806;28;20052;-54
2023/10/29 01:10:49;;;;;;;1.48;0.50;;;16.70;73.00;;;;;;4992455;28;20026;-54
2023/10/29 01:13:16;;;;;;;1.85;0.65;;;16.70;73.10;;;;;;4988651;28;20042;-55
2023/10/29 01:15:43;;;;;;;1.20;0.63;;;16.80;73.00;;;;;;4991667;28;20120;-55
2023/10/29 01:18:10;;;;;;;2.97;0.60;;;16.80;72.90;;;;;;5009736;28;20412;-55
2023/10/29 01:20:38;;;;;;;1.13;0.70;;;16.80;72.80;;;;;;4991510;28;20100;-54
2023/10/29 01:23:04;;;;;;;1.50;0.57;;;16.80;72.80;;;;;;4989066;28;20061;-55
2023/10/29 01:25:31;;;;;;;1.77;0.77;;;16.80;72.80;;;;;;5006362;28;20052;-55
2023/10/29 01:27:59;;;;;;;1.83;0.50;;;16.80;72.80;;;;;;5010459;28;20038;-54
2023/10/29 01:30:26;;;;;;;0.80;0.50;;;16.90;72.90;;;;;;4992094;28;20037;-54
2023/10/29 01:32:53;;;;;;;3.70;1.00;;;16.80;72.80;;;;;;4992559;28;20133;-54
2023/10/29 01:35:19;;;;;;;2.58;0.95;;;16.80;72.90;;;;;;5009133;28;20519;-52
2023/10/29 01:37:47;;;;;;;1.02;0.38;;;16.90;73.10;;;;;;4992734;28;20042;-53
2023/10/29 01:40:13;;;;;;;3.95;0.93;;;16.90;72.90;;;;;;4992337;28;20057;-52
2023/10/29 01:42:40;;;;;;;1.02;0.60;;;16.90;72.90;;;;;;5006666;28;20060;-52
2023/10/29 01:45:14;;;;;;;2.38;0.95;;;16.90;73.00;;;;;;4992360;28;20128;-53
2023/10/29 01:47:41;;;;;;;0.95;0.70;;;16.80;73.20;;;;;;4992314;28;20049;-51
2023/10/29 01:50:09;;;;;;;0.95;0.50;;;16.80;73.10;;;;;;4991026;28;20057;-50
2023/10/29 01:52:39;;;;;;;0.98;0.40;;;16.80;73.20;;;;;;5007319;28;20034;-53
2023/10/29 01:55:06;;;;;;;0.52;0.43;;;16.80;73.20;;;;;;4987355;28;20488;-53
2023/10/29 01:57:34;;;;;;;0.88;0.43;;;16.80;73.00;;;;;;4992266;28;20069;-52
2023/10/29 02:00:08;;;;;;;2.13;0.50;;;16.80;73.10;;;;;;4990892;28;20053;-52
2023/10/29 02:02:38;;;;;;;3.47;1.00;;;16.70;72.90;;;;;;5006997;28;20999;-53
2023/10/29 02:05:06;;;;;;;0.40;0.40;;;16.70;73.40;;;;;;5003028;28;20097;-50
2023/10/29 02:07:32;;;;;;;1.20;0.47;;;16.70;73.00;;;;;;5009134;28;20088;-56
2023/10/29 02:09:59;;;;;;;0.57;0.30;;;16.70;73.00;;;;;;5009394;28;20045;-51
2023/10/29 02:12:28;;;;;;;1.17;0.43;;;16.70;73.00;;;;;;4993189;28;20038;-51
2023/10/29 02:14:54;;;;;;;2.03;0.52;;;16.70;72.90;;;;;;4991156;28;20566;-52
2023/10/29 02:17:24;;;;;;;1.20;0.50;;;16.70;72.80;;;;;;5007463;28;20042;-52
2023/10/29 02:19:52;;;;;;;3.50;0.60;;;16.70;72.70;;;;;;5008462;28;20066;-50
2023/10/29 02:22:18;;;;;;;1.27;0.60;;;16.70;72.70;;;;;;5007572;28;20069;-51
2023/10/29 02:24:45;;;;;;;0.47;0.45;;;16.70;72.70;;;;;;5007234;28;20050;-51
2023/10/29 02:27:12;;;;;;;0.77;0.43;;;16.70;72.70;;;;;;5008243;28;20539;-49
2023/10/29 02:29:39;;;;;;;2.38;0.60;;;16.80;72.50;;;;;;5008944;28;20041;-52
2023/10/29 02:32:06;;;;;;;1.38;0.40;;;16.80;72.50;;;;;;5006850;28;20555;-55
2023/10/29 02:34:33;;;;;;;0.40;0.30;;;16.80;72.30;;;;;;4989450;28;20814;-50
2023/10/29 02:36:59;;;;;;;1.10;0.40;;;16.80;72.30;;;;;;4990885;28;20548;-52
2023/10/29 02:39:26;;;;;;;0.85;0.40;;;16.80;72.30;;;;;;5008466;28;20121;-53
2023/10/29 02:41:53;;;;;;;1.15;0.30;;;16.80;72.30;;;;;;4990673;28;20050;-54
2023/10/29 02:44:20;;;;;;;1.35;0.40;;;16.80;72.20;;;;;;4988926;28;20116;-50
2023/10/29 02:46:47;;;;;;;0.73;0.50;;;16.80;72.10;;;;;;4993094;28;20128;-53
2023/10/29 02:49:14;;;;;;;1.00;0.50;;;16.90;72.20;;;;;;5004482;28;20062;-50
2023/10/29 02:51:41;;;;;;;0.52;0.25;;;16.80;72.00;;;;;;4990578;28;20064;-54
2023/10/29 02:54:11;;;;;;;0.98;0.40;;;16.90;71.90;;;;;;4989912;28;20045;-51
2023/10/29 02:56:38;;;;;;;1.02;0.30;;;16.80;71.80;;;;;;5005566;28;20046;-52
2023/10/29 02:59:09;;;;;;;1.00;0.40;;;16.90;71.90;;;;;;5009080;28;20121;-53
2023/10/29 03:01:37;;;;;;;1.25;0.60;;;16.80;71.80;;;;;;5006358;28;20045;-51
2023/10/29 03:04:05;;;;;;;0.47;0.40;;;16.80;71.70;;;;;;4989250;28;20034;-50
2023/10/29 03:06:32;;;;;;;0.95;0.30;;;16.80;71.60;;;;;;4986309;28;20488;-52
2023/10/29 03:09:01;;;;;;;0.80;0.38;;;16.80;72.20;;;;;;4989688;28;20050;-51
2023/10/29 03:11:28;;;;;;;0.77;0.30;;;16.80;71.70;;;;;;5007143;28;20050;-53
2023/10/29 03:13:55;;;;;;;0.98;0.57;;;16.80;71.60;;;;;;5003760;28;20030;-53
2023/10/29 03:16:21;;;;;;;2.47;0.30;;;16.80;71.60;;;;;;5004719;28;20117;-51
2023/10/29 03:18:48;;;;;;;0.40;0.30;;;16.80;71.70;;;;;;4989361;28;20727;-53
2023/10/29 03:21:16;;;;;;;0.30;0.30;;;16.80;71.70;;;;;;4989233;28;20045;-52
2023/10/29 03:23:43;;;;;;;2.00;0.40;;;16.80;71.70;;;;;;5007865;28;20038;-52
2023/10/29 03:26:10;;;;;;;2.47;0.50;;;16.80;71.70;;;;;;4986514;28;20038;-53
2023/10/29 03:28:41;;;;;;;0.63;0.30;;;16.80;71.70;;;;;;4999001;28;20455;-52
2023/10/29 03:31:15;;;;;;;0.13;0.13;;;16.70;71.60;;;;;;5008011;28;20065;-49
2023/10/29 03:33:42;;;;;;;0.30;0.30;;;16.80;71.50;;;;;;5005853;28;20034;-52
2023/10/29 03:36:12;;;;;;;0.77;0.30;;;16.70;71.50;;;;;;4988705;28;20463;-54
2023/10/29 03:38:39;;;;;;;0.30;0.30;;;16.70;71.50;;;;;;5007065;28;20117;-53
2023/10/29 03:41:06;;;;;;;0.35;0.35;;;16.70;71.60;;;;;;4989394;28;20073;-51
2023/10/29 03:43:32;;;;;;;0.68;0.55;;;16.70;71.60;;;;;;5006545;28;20073;-52
2023/10/29 03:45:59;;;;;;;1.50;0.40;;;16.70;71.60;;;;;;5008530;28;20065;-49
2023/10/29 03:48:28;;;;;;;0.45;0.30;;;16.70;71.50;;;;;;4995853;28;20485;-53
2023/10/29 03:50:56;;;;;;;0.50;0.50;;;16.70;71.60;;;;;;4990072;28;20046;-53
2023/10/29 03:53:22;;;;;;;1.75;0.43;;;16.70;71.50;;;;;;4988338;28;20511;-51
2023/10/29 03:55:51;;;;;;;1.10;0.40;;;16.70;71.50;;;;;;5005280;28;20132;-51
2023/10/29 03:58:17;;;;;;;0.50;0.35;;;16.70;71.50;;;;;;5009062;28;20042;-50
2023/10/29 04:00:50;;;;;;;1.38;0.50;;;16.70;71.50;;;;;;5013209;28;20096;-51
2023/10/29 04:03:20;;;;;;;1.85;0.50;;;16.70;71.40;;;;;;5007588;28;20496;-52
2023/10/29 04:05:47;;;;;;;0.85;0.40;;;16.70;71.30;;;;;;4991575;28;20041;-53
2023/10/29 04:08:13;;;;;;;0.90;0.40;;;16.70;71.20;;;;;;4992348;28;20053;-52
2023/10/29 04:10:40;;;;;;;0.40;0.20;;;16.70;71.10;;;;;;4993506;28;20126;-52
2023/10/29 04:13:08;;;;;;;0.82;0.30;;;16.70;71.10;;;;;;5004346;28;20050;-54
2023/10/29 04:15:36;;;;;;;0.30;0.30;;;16.70;71.00;;;;;;5009273;28;20034;-51
2023/10/29 04:18:02;;;;;;;0.45;0.30;;;16.70;71.00;;;;;;5009759;28;20144;-51
2023/10/29 04:20:29;;;;;;;1.42;0.40;;;16.70;71.60;;;;;;5008978;28;20088;-53
2023/10/29 04:22:56;;;;;;;4.50;0.60;;;16.70;71.00;;;;;;5009489;28;20423;-53
2023/10/29 04:25:23;;;;;;;1.10;0.80;;;16.70;70.70;;;;;;5007076;28;20121;-50
2023/10/29 04:27:55;;;;;;;3.40;1.70;;;16.70;70.80;;;;;;5010366;28;20071;-55
2023/10/29 04:30:22;;;;;;;2.38;0.65;;;16.70;70.60;;;;;;5010415;28;20595;-53
2023/10/29 04:32:49;;;;;;;2.40;0.40;;;16.80;70.60;;;;;;5004986;28;20042;-51
2023/10/29 04:35:16;;;;;;;0.75;0.57;;;16.80;70.40;;;;;;5009042;28;20038;-52
2023/10/29 04:37:42;;;;;;;0.68;0.40;;;16.80;70.40;;;;;;5010596;28;20124;-53
2023/10/29 04:40:09;;;;;;;0.98;0.63;;;16.80;70.20;;;;;;5010603;28;20042;-55
2023/10/29 04:42:36;;;;;;;0.40;0.40;;;16.80;70.10;;;;;;5004982;28;20824;-51
2023/10/29 04:45:05;;;;;;;0.88;0.50;;;16.90;70.00;;;;;;5010354;28;20061;-51
2023/10/29 04:47:32;;;;;;;0.68;0.43;;;16.90;70.00;;;;;;5009717;28;20077;-50
2023/10/29 04:49:59;;;;;;;0.47;0.40;;;16.90;70.00;;;;;;5008657;28;20034;-51
2023/10/29 04:52:26;;;;;;;1.17;0.47;;;16.90;69.80;;;;;;5007339;28;20092;-51
2023/10/29 04:54:53;;;;;;;1.67;0.40;;;16.90;69.60;;;;;;5006503;28;20046;-50
2023/10/29 04:57:21;;;;;;;1.25;0.93;;;16.90;69.70;;;;;;5009755;28;20472;-53
2023/10/29 04:59:48;;;;;;;1.88;0.50;;;16.90;69.60;;;;;;5011775;28;20707;-53
2023/10/29 05:02:16;;;;;;;1.27;0.30;;;17.00;69.50;;;;;;5009670;28;20038;-53
2023/10/29 05:04:43;;;;;;;2.10;0.55;;;17.00;69.50;;;;;;5008281;28;20511;-53
2023/10/29 05:07:10;;;;;;;0.40;0.40;;;17.00;69.30;;;;;;5009558;28;20337;-54
2023/10/29 05:09:36;;;;;;;0.68;0.32;;;17.00;69.20;;;;;;5007621;28;20099;-54
2023/10/29 05:12:03;;;;;;;1.45;0.47;;;17.00;69.20;;;;;;5009713;28;20500;-51
2023/10/29 05:14:30;;;;;;;2.58;0.50;;;17.00;69.20;;;;;;5008182;28;20041;-51
2023/10/29 05:16:57;;;;;;;3.13;0.50;;;17.00;69.00;;;;;;5010405;28;20047;-54
2023/10/29 05:19:24;;;;;;;2.42;0.35;;;17.00;69.00;;;;;;5007623;28;20080;-54
2023/10/29 05:21:51;;;;;;;0.93;0.35;;;17.00;68.90;;;;;;5007085;28;20463;-52
2023/10/29 05:24:18;;;;;;;1.25;1.05;;;17.00;68.80;;;;;;5006341;28;20496;-50
2023/10/29 05:26:47;;;;;;;1.23;0.50;;;17.00;68.70;;;;;;5004605;28;20120;-52
2023/10/29 05:29:16;;;;;;;1.60;0.60;;;17.00;69.40;;;;;;5009087;28;20041;-52
2023/10/29 05:31:43;;;;;;;1.73;0.50;;;17.00;68.70;;;;;;5009984;28;20137;-53
2023/10/29 05:34:09;;;;;;;0.90;0.80;;;17.00;68.70;;;;;;5005145;28;20046;-50
2023/10/29 05:36:38;;;;;;;2.05;0.50;;;17.00;68.80;;;;;;5009543;28;20045;-50
2023/10/29 05:39:07;;;;;;;2.72;0.50;;;17.00;68.70;;;;;;5008590;28;20087;-52
2023/10/29 05:41:33;;;;;;;3.47;0.50;;;16.90;68.70;;;;;;5008343;28;21786;-52
2023/10/29 05:44:00;;;;;;;2.72;0.50;;;16.90;68.70;;;;;;5008593;28;20049;-50
2023/10/29 05:46:27;;;;;;;1.15;0.70;;;16.90;68.70;;;;;;5010140;28;20145;-53
2023/10/29 05:48:54;;;;;;;2.28;1.10;;;16.90;69.40;;;;;;5007950;28;20037;-52
2023/10/29 05:51:20;;;;;;;1.45;0.50;;;16.90;68.70;;;;;;5004934;28;20034;-51
2023/10/29 05:53:47;;;;;;;2.15;1.20;;;16.90;68.70;;;;;;5008323;28;20034;-52
2023/10/29 05:56:14;;;;;;;1.27;0.50;;;16.90;68.80;;;;;;5006092;28;20068;-57
2023/10/29 05:58:40;;;;;;;0.60;0.40;;;16.90;68.80;;;;;;5009499;28;20048;-54
2023/10/29 06:01:07;;;;;;;1.40;0.50;;;16.90;69.30;;;;;;4990504;28;20531;-54
2023/10/29 06:03:34;;;;;;;1.98;0.90;;;16.90;68.80;;;;;;5007343;28;20099;-53
2023/10/29 06:06:01;;;;;;;2.67;0.50;;;16.80;68.70;;;;;;5002939;28;20058;-50
2023/10/29 06:08:28;;;;;;;1.15;0.30;;;16.80;68.70;;;;;;4991631;28;20046;-56
2023/10/29 06:10:55;;;;;;;3.65;1.05;;;16.80;68.70;;;;;;5008464;28;20093;-52
2023/10/29 06:13:22;;;;;;;0.65;0.45;;;16.80;68.70;;;;;;5005457;28;20048;-52
2023/10/29 06:15:48;;;;;;;0.80;0.60;;;16.80;68.70;;;;;;5008276;28;20071;-49
2023/10/29 06:18:16;;;;;;;2.72;0.65;;;16.80;68.70;;;;;;5009972;28;20128;-54
2023/10/29 06:20:43;;;;;;;1.77;0.57;;;16.80;68.80;;;;;;5004270;28;20066;-56
2023/10/29 06:23:10;;;;;;;2.58;0.68;;;16.80;68.80;;;;;;5006759;28;20042;-51
2023/10/29 06:25:38;;;;;;;3.25;0.90;;;16.80;68.80;;;;;;5004189;28;20046;-48
2023/10/29 06:28:05;;;;;;;3.28;0.85;;;16.70;68.70;;;;;;5009415;28;20053;-50
2023/10/29 06:30:31;;;;;;;1.30;0.57;;;16.70;68.70;;;;;;5008725;28;20061;-54
2023/10/29 06:33:01;;;;;;;1.10;0.70;;;16.70;68.70;;;;;;5006378;28;20037;-53
2023/10/29 06:35:28;;;;;;;3.28;0.80;;;16.70;68.80;;;;;;5007511;28;20038;-51
2023/10/29 06:37:55;;;;;;;3.08;0.70;;;16.70;68.80;;;;;;5008868;28;20033;-53
2023/10/29 06:40:21;;;;;;;1.20;0.88;;;16.70;68.70;;;;;;5007418;28;20052;-52
2023/10/29 06:42:48;;;;;;;4.03;0.73;;;16.70;68.60;;;;;;5004867;28;21236;-54
2023/10/29 06:45:16;;;;;;;1.55;0.88;;;16.70;68.60;;;;;;5007147;28;20121;-54
2023/10/29 06:47:43;;;;;;;1.25;0.55;;;16.70;68.50;;;;;;5006484;28;20112;-54
2023/10/29 06:50:12;;;;;;;4.00;0.70;;;16.70;68.50;;;;;;5001871;28;20123;-51
2023/10/29 06:52:39;;;;;;;4.13;0.70;;;16.60;68.40;;;;;;5004702;28;20053;-53
2023/10/29 06:55:08;;;;;;;1.63;0.50;;;16.60;68.50;;;;;;5005118;28;20063;-51
2023/10/29 06:57:37;;;;;;;0.95;0.43;;;16.60;68.50;;;;;;5006975;28;20045;-50
2023/10/29 07:00:04;;;;;;;1.33;0.43;;;16.60;68.50;;;;;;5007250;28;20053;-49
2023/10/29 07:02:32;;;;;;;3.08;0.70;;;16.50;68.50;;;;;;5004474;28;20113;-55
2023/10/29 07:05:01;;;;;;;2.35;0.60;;;16.50;68.50;;;;;;5004564;28;20635;-56
2023/10/29 07:07:29;;;;;;;3.08;0.77;;;16.50;68.60;;;;;;5003643;28;20038;-55
2023/10/29 07:09:56;;;;;;;2.22;0.63;;;16.50;68.70;;;;;;5008901;28;20088;-53
2023/10/29 07:12:23;;;;;;;4.30;1.00;;;16.40;68.70;;;;;;5007394;28;20566;-53
2023/10/29 07:14:50;;;;;;;1.58;1.10;;;16.40;68.80;;;;;;5005676;28;20460;-50
2023/10/29 07:17:20;;;;;;;1.05;0.70;;;16.40;68.90;;;;;;5006865;28;20038;-49
2023/10/29 07:19:47;;;;;;;3.50;0.80;;;16.40;69.00;;;;;;5006928;28;20136;-51
2023/10/29 07:22:16;;;;;;;3.10;0.90;;;16.40;69.10;;;;;;5011892;28;20037;-51
2023/10/29 07:24:43;;;;;;;2.42;1.00;;;16.30;69.20;;;;;;4974894;28;20049;-52
2023/10/29 07:27:09;;;;;;;3.50;0.77;;;16.30;70.00;;;;;;5009496;28;20121;-49
2023/10/29 07:29:37;;;;;;;1.58;0.75;;;16.10;69.20;;;;;;5014886;28;20084;-52
2023/10/29 07:32:04;;;;;;;3.13;1.45;;;16.30;69.50;;;;;;5010018;28;20049;-50
2023/10/29 07:34:31;;;;;;;1.13;0.40;;;16.30;69.60;;;;;;5012742;28;20061;-52
2023/10/29 07:36:57;;;;;;;1.00;0.50;;;16.20;69.60;;;;;;5014713;28;20542;-54
2023/10/29 07:39:24;;;;;;;3.08;1.08;;;16.20;69.60;;;;;;5017411;28;20108;-52
2023/10/29 07:41:51;;;;;;;3.15;1.00;;;16.20;70.50;;;;;;5011266;28;20591;-50
2023/10/29 07:44:18;;;;;;;2.40;1.23;;;16.20;70.00;;;;;;5018185;28;20050;-53
2023/10/29 07:46:44;;;;;;;1.85;0.65;;;16.30;70.20;;;;;;5017094;28;20065;-49
2023/10/29 07:49:11;;;;;;;2.00;1.05;;;16.30;70.20;;;;;;5011056;28;20135;-49
2023/10/29 07:51:40;;;;;;;2.53;0.88;;;16.30;70.10;;;;;;5013694;28;20118;-53
2023/10/29 07:54:10;;;;;;;4.28;0.73;;;16.30;70.10;;;;;;5018543;28;20097;-50
2023/10/29 07:56:37;;;;;;;3.17;0.82;;;16.40;69.90;;;;;;5015604;28;20100;-53
2023/10/29 07:59:03;;;;;;;3.83;0.85;;;16.40;69.80;;;;;;5015765;28;20837;-51
2023/10/29 08:01:32;;;;;;;1.13;0.57;;;16.50;69.80;;;;;;5020184;28;20048;-51
2023/10/29 08:03:59;;;;;;;3.65;0.90;;;16.50;69.70;;;;;;5014062;28;20068;-56
2023/10/29 08:06:26;;;;;;;3.53;0.73;;;16.50;69.60;;;;;;5016991;28;20502;-50
2023/10/29 08:08:55;;;;;;;3.33;0.95;;;16.50;69.40;;;;;;5018155;28;20572;-54
2023/10/29 08:11:22;;;;;;;2.58;0.82;;;16.50;69.30;;;;;;4999496;28;20042;-50
2023/10/29 08:13:50;;;;;;;4.65;0.60;;;16.60;69.30;;;;;;5001220;28;20047;-50
2023/10/29 08:16:19;;;;;;;3.17;0.70;;;16.60;69.10;;;;;;5019238;28;20042;-50
2023/10/29 08:18:46;;;;;;;2.85;1.20;;;16.60;69.00;;;;;;5013215;28;20416;-50
2023/10/29 08:21:13;;;;;;;1.95;0.90;;;16.60;68.80;;;;;;5018315;28;20041;-51
2023/10/29 08:23:39;;;;;;;1.23;0.60;;;16.60;68.70;;;;;;5014406;28;20038;-52
2023/10/29 08:26:06;;;;;;;1.48;0.65;;;16.60;68.70;;;;;;5012945;28;20041;-52
2023/10/29 08:28:35;;;;;;;2.13;0.95;;;16.50;68.60;;;;;;5019912;28;20053;-54
2023/10/29 08:31:04;;;;;;;2.70;0.80;;;16.50;68.50;;;;;;5020709;28;20579;-52
2023/10/29 08:33:31;;;;;;;3.97;0.60;;;16.50;68.50;;;;;;5024428;28;20388;-53
2023/10/29 08:35:57;;;;;;;1.25;0.50;;;16.50;68.50;;;;;;5017552;28;20096;-51
2023/10/29 08:38:24;;;;;;;3.08;0.70;;;16.50;68.50;;;;;;5018000;28;20499;-54
2023/10/29 08:40:52;;;;;;;2.05;0.57;;;16.40;68.50;;;;;;5015983;28;20100;-55
2023/10/29 08:43:19;;;;;;;1.67;0.55;;;16.40;68.50;;;;;;5015332;28;20056;-53
2023/10/29 08:45:45;;;;;;;1.73;0.73;;;16.40;68.50;;;;;;5021491;28;20092;-55
2023/10/29 08:48:12;;;;;;;1.58;0.80;;;16.40;68.50;;;;;;5012517;28;20042;-49
2023/10/29 08:50:40;;;;;;;2.10;0.70;;;16.30;68.50;;;;;;5015731;28;20034;-50
2023/10/29 08:53:06;;;;;;;3.58;0.80;;;16.30;68.50;;;;;;4999816;28;20048;-51
2023/10/29 08:55:38;;;;;;;5.03;0.90;;;16.30;68.50;;;;;;4996647;28;20046;-51
2023/10/29 08:58:05;;;;;;;1.65;0.60;;;16.30;68.40;;;;;;5017970;28;20052;-52
2023/10/29 09:00:32;;;;;;;3.85;1.35;;;16.30;68.50;;;;;;5022764;28;20068;-52
2023/10/29 09:03:14;;;;;;;3.65;1.27;;;16.30;68.50;;;;;;5013640;28;20572;-50
2023/10/29 09:05:42;;;;;;;3.05;1.02;;;16.20;68.40;;;;;;5018222;28;20029;-50
2023/10/29 09:08:09;;;;;;;4.65;1.15;;;16.20;68.50;;;;;;5017895;28;20053;-52
2023/10/29 09:10:41;;;;;;;3.65;1.10;;;16.20;68.50;;;;;;5019645;28;20095;-50
2023/10/29 09:13:09;;;;;;;1.58;1.00;;;16.30;68.70;;;;;;5021772;28;20038;-49
2023/10/29 09:15:35;;;;;;;3.35;1.13;;;16.30;68.60;;;;;;5022124;28;20042;-54
2023/10/29 09:18:02;;;;;;;1.95;0.95;;;16.40;68.70;;;;;;5019559;28;20076;-49
2023/10/29 09:20:29;;;;;;;2.40;0.90;;;16.40;68.60;;;;;;5019869;28;20047;-55
2023/10/29 09:22:56;;;;;;;3.13;1.05;;;16.40;68.70;;;;;;5006715;28;20076;-52
2023/10/29 09:25:23;;;;;;;3.28;0.70;;;16.40;68.60;;;;;;5011634;28;20113;-50
2023/10/29 09:27:50;;;;;;;3.60;1.75;;;16.50;68.60;;;;;;5021397;28;20815;-55
2023/10/29 09:30:16;;;;;;;3.15;0.80;;;16.60;68.60;;;;;;5020953;28;20594;-52
2023/10/29 09:32:43;;;;;;;4.03;1.05;;;16.60;68.60;;;;;;5020624;28;20049;-53
2023/10/29 09:35:10;;;;;;;2.45;0.80;;;16.70;68.50;;;;;;5019899;28;20406;-53
2023/10/29 09:37:37;;;;;;;2.92;1.02;;;16.70;68.30;;;;;;5021407;28;20044;-50
2023/10/29 09:40:08;;;;;;;3.42;1.05;;;16.70;68.40;;;;;;5021996;28;20128;-51
2023/10/29 09:42:40;;;;;;;2.20;1.45;;;16.80;68.40;;;;;;5017155;28;20466;-55
2023/10/29 09:45:07;;;;;;;3.03;0.88;;;16.80;68.20;;;;;;5016833;28;20033;-54
2023/10/29 09:47:35;;;;;;;1.48;0.68;;;16.90;68.00;;;;;;5019212;28;20053;-55
2023/10/29 09:50:02;;;;;;;1.67;0.70;;;16.90;68.00;;;;;;5019704;28;20050;-52
2023/10/29 09:52:32;;;;;;;2.95;0.80;;;16.90;67.80;;;;;;5017040;28;20034;-55
2023/10/29 09:55:00;;;;;;;3.00;1.00;;;16.90;67.70;;;;;;5016438;28;20118;-54
2023/10/29 09:57:29;;;;;;;1.05;0.55;;;17.00;67.40;;;;;;5018072;28;20048;-53
2023/10/29 09:59:56;;;;;;;3.88;0.80;;;17.00;67.40;;;;;;5000757;28;20076;-53
2023/10/29 10:02:26;;;;;;;3.13;0.93;;;17.00;67.20;;;;;;5021088;28;20041;-55
2023/10/29 10:04:54;;;;;;;2.67;1.10;;;17.00;67.30;;;;;;5013919;28;20053;-50
2023/10/29 10:07:21;;;;;;;1.23;1.02;;;17.00;67.20;;;;;;5012307;28;20065;-53
2023/10/29 10:09:55;;;;;;;2.88;0.80;;;17.10;67.50;;;;;;5011410;28;20096;-52
2023/10/29 10:12:24;;;;;;;2.65;0.70;;;17.20;67.30;;;;;;5014554;28;20073;-53
2023/10/29 10:14:52;;;;;;;4.70;1.05;;;17.20;67.00;;;;;;5020562;28;20076;-53
2023/10/29 10:17:19;;;;;;;1.55;0.70;;;17.40;67.00;;;;;;5021064;28;21273;-50
2023/10/29 10:19:46;;;;;;;3.33;0.70;;;17.40;66.30;;;;;;5017239;28;20045;-53
2023/10/29 10:22:32;;;;;;;0.73;0.40;;;17.60;66.00;;;;;;5014222;28;20041;-53
2023/10/29 10:24:59;;;;;;;1.35;0.95;;;17.60;65.80;;;;;;5013956;28;20128;-56
2023/10/29 10:27:25;;;;;;;2.72;0.70;;;17.70;65.60;;;;;;5020097;28;20491;-53
2023/10/29 10:29:52;;;;;;;1.80;0.75;;;17.80;65.20;;;;;;5021489;28;20034;-52
2023/10/29 10:32:26;;;;;;;2.72;0.70;;;17.90;65.00;;;;;;5021874;28;20046;-54
2023/10/29 10:34:55;;;;;;;1.23;0.50;;;18.00;64.20;;;;;;5016057;28;20052;-50
2023/10/29 10:37:24;;;;;;;3.20;1.25;;;18.00;64.50;;;;;;5015119;28;20518;-55
2023/10/29 10:39:54;;;;;;;1.95;0.60;;;18.00;64.00;;;;;;5022299;28;20494;-53
2023/10/29 10:42:25;;;;;;;1.88;0.60;;;18.00;64.00;;;;;;5021161;28;20038;-53
2023/10/29 10:44:56;;;;;;;0.88;0.70;;;18.10;64.00;;;;;;5019784;28;20065;-52
2023/10/29 10:47:26;;;;;;;1.63;0.75;;;18.10;64.00;;;;;;5015295;28;20033;-51
2023/10/29 10:49:55;;;;;;;1.35;0.60;;;18.20;63.80;;;;;;5022383;28;20615;-53
2023/10/29 10:52:25;;;;;;;2.78;1.15;;;18.20;63.60;;;;;;5022060;28;20566;-54
2023/10/29 10:54:52;;;;;;;1.77;0.65;;;18.30;63.60;;;;;;5020277;28;20125;-52
2023/10/29 10:57:20;;;;;;;2.00;0.80;;;18.30;63.30;;;;;;5016307;28;20461;-50
2023/10/29 10:59:47;;;;;;;1.35;0.60;;;18.20;63.00;;;;;;5019172;28;20128;-56
2023/10/29 11:02:15;;;;;;;4.13;0.90;;;18.20;63.00;;;;;;4993191;28;20057;-55
2023/10/29 11:04:43;;;;;;;2.30;1.35;;;18.20;62.80;;;;;;5017946;28;20038;-55
2023/10/29 11:07:11;;;;;;;0.93;0.60;;;18.20;62.90;;;;;;5019476;28;20060;-54
2023/10/29 11:09:37;;;;;;;1.58;0.90;;;18.20;63.20;;;;;;5020849;28;20143;-55
2023/10/29 11:12:09;;;;;;;3.30;0.93;;;18.10;63.10;;;;;;5018595;28;20050;-53
2023/10/29 11:14:36;;;;;;;3.30;1.30;;;18.10;63.00;;;;;;5007236;28;20042;-55
2023/10/29 11:17:03;;;;;;;2.28;0.70;;;18.10;63.20;;;;;;5004797;28;20048;-53
2023/10/29 11:19:39;;;;;;;1.58;0.70;;;18.10;63.40;;;;;;5006404;28;20048;-54
2023/10/29 11:22:13;;;;;;;5.43;1.25;;;18.10;63.30;;;;;;5001231;28;20054;-53
2023/10/29 11:24:40;;;;;;;4.88;2.17;;;18.10;63.30;;;;;;5001191;28;20095;-51
2023/10/29 11:27:34;;;;;;;12.75;2.13;;;18.10;63.70;;;;;;5001805;28;20907;-53
2023/10/29 11:30:16;;;;;;;3.65;2.33;;;18.10;63.90;;;;;;5007713;28;20100;-50
2023/10/29 11:32:44;;;;;;;;;;;18.20;63.80;;;;;;5004150;28;20527;-53
2023/10/29 11:35:21;;;;;;;6.15;3.45;;;18.30;64.50;;;;;;5004005;28;20299;-52
2023/10/29 11:37:52;;;;;;;5.30;2.53;;;18.30;64.30;;;;;;5003081;28;20451;-51
2023/10/29 11:40:24;;;;;;;3.42;1.40;;;18.40;64.10;;;;;;5006754;28;20104;-55
2023/10/29 11:42:52;;;;;;;4.35;2.08;;;18.50;63.60;;;;;;5007164;28;20137;-50
2023/10/29 11:45:28;;;;;;;2.67;1.27;;;18.60;63.70;;;;;;5003721;28;20547;-52
2023/10/29 11:48:10;;;;;;;2.72;0.88;;;18.70;63.30;;;;;;5006144;28;20583;-50
2023/10/29 11:50:38;;;;;;;1.45;0.50;;;18.80;62.40;;;;;;5005963;28;20041;-48
2023/10/29 11:53:06;;;;;;;4.00;0.93;;;18.80;62.30;;;;;;4988765;28;20096;-52
2023/10/29 11:55:41;;;;;;;3.47;0.85;;;18.80;62.00;;;;;;4997728;28;20034;-51
2023/10/29 11:58:08;;;;;;;4.63;0.98;;;18.80;61.80;;;;;;5004433;28;20042;-55
2023/10/29 12:00:39;;;;;;;2.08;0.50;;;18.80;62.10;;;;;;5006982;28;20050;-52
2023/10/29 12:03:13;;;;;;;1.88;0.50;;;18.90;61.60;;;;;;5003793;28;20041;-52
2023/10/29 12:05:50;;;;;;;2.03;0.85;;;18.90;62.00;;;;;;4987799;28;20142;-49
2023/10/29 12:08:18;;;;;;;0.68;0.60;;;19.10;61.30;;;;;;4992929;28;20572;-49
2023/10/29 12:10:55;;;;;;;2.83;0.68;;;19.10;61.70;;;;;;5009976;28;20069;-54
2023/10/29 12:13:22;;;;;;;2.63;0.43;;;19.20;60.70;;;;;;5010817;28;20038;-53
2023/10/29 12:15:56;;;;;;;1.80;0.77;;;19.20;61.20;;;;;;5009096;28;20038;-52
2023/10/29 12:18:25;;;;;;;0.60;0.50;;;19.30;61.20;;;;;;5010627;28;20041;-54
2023/10/29 12:21:10;;;;;;;2.03;0.50;;;19.30;61.80;;;;;;5011553;28;20688;-53
2023/10/29 12:23:38;;;;;;;0.95;0.60;;;19.40;62.00;;;;;;5007378;28;20045;-56
2023/10/29 12:26:08;;;;;;;1.58;0.50;;;19.40;62.40;;;;;;5006428;28;20843;-55
2023/10/29 12:28:36;;;;;;;2.28;1.05;;;19.40;62.20;;;;;;5011287;28;20048;-53
2023/10/29 12:31:03;;;;;;;3.08;0.50;;;19.40;62.00;;;;;;5010276;28;20689;-54
2023/10/29 12:33:34;;;;;;;1.77;0.65;;;19.40;61.90;;;;;;5010572;28;20042;-54
2023/10/29 12:36:13;;;;;;;1.88;0.50;;;19.30;61.90;;;;;;5005475;28;20135;-53
2023/10/29 12:38:41;;;;;;;2.22;0.65;;;19.20;61.80;;;;;;5009135;28;20492;-55
2023/10/29 12:41:16;;;;;;;2.22;0.60;;;19.20;62.10;;;;;;5011567;28;20049;-52
2023/10/29 12:43:44;;;;;;;0.70;0.30;;;19.10;61.80;;;;;;5007767;28;20054;-53
2023/10/29 12:46:13;;;;;;;2.35;0.43;;;19.10;61.80;;;;;;5009035;28;20050;-49
2023/10/29 12:49:03;;;;;;;1.02;0.40;;;19.00;61.70;;;;;;5009948;28;20045;-57
2023/10/29 12:51:35;;;;;;;0.88;0.47;;;18.90;60.90;;;;;;5007513;28;20088;-53
2023/10/29 12:54:19;;;;;;;1.65;0.63;;;18.90;61.60;;;;;;5005538;28;20508;-53